Time;durP1;ratioP1;P1;durP2;ratioP2;P2;SDS_P1;SDS_P2;PMS_P1;PMS_P2;Temp;Humidity;BMP_temperature;BMP_pressure;BME280_temperature;BME280_humidity;BME280_pressure;Samples;Min_cycle;Max_cycle;Signal;HPM_P1;HPM_P2
2021/06/23 00:00:06;;;;;;;5.65;3.90;;;13.20;85.40;;;;;;2088774;28;20124;-81
2021/06/23 00:01:07;;;;;;;5.57;3.97;;;13.20;85.30;;;;;;2081791;28;20128;-82
2021/06/23 00:02:08;;;;;;;6.28;4.10;;;13.20;85.20;;;;;;2072430;28;20061;-81
2021/06/23 00:03:08;;;;;;;7.75;4.18;;;13.20;85.20;;;;;;2089981;28;20032;-81
2021/06/23 00:04:09;;;;;;;6.07;3.88;;;13.20;85.20;;;;;;2089629;28;20549;-81
2021/06/23 00:05:10;;;;;;;6.13;4.13;;;13.20;85.20;;;;;;2085568;28;20045;-81
2021/06/23 00:06:11;;;;;;;6.40;3.97;;;13.20;85.10;;;;;;2073163;28;20399;-81
2021/06/23 00:07:11;;;;;;;6.00;3.83;;;13.20;85.10;;;;;;2081467;28;20029;-81
2021/06/23 00:08:12;;;;;;;6.22;3.90;;;13.20;85.10;;;;;;2081358;28;20030;-81
2021/06/23 00:09:12;;;;;;;5.75;3.50;;;13.20;85.20;;;;;;2064748;28;20480;-81
2021/06/23 00:10:15;;;;;;;6.53;3.95;;;13.20;85.20;;;;;;2057042;28;20436;-81
2021/06/23 00:11:16;;;;;;;4.65;3.72;;;13.20;85.20;;;;;;2074241;28;20034;-81
2021/06/23 00:12:16;;;;;;;5.63;3.33;;;13.20;85.20;;;;;;2081606;28;20419;-82
2021/06/23 00:13:19;;;;;;;5.53;3.50;;;13.20;85.20;;;;;;2081858;28;20400;-80
2021/06/23 00:14:20;;;;;;;6.25;3.63;;;13.20;85.20;;;;;;2080673;28;20128;-81
2021/06/23 00:15:21;;;;;;;5.63;3.40;;;13.20;85.20;;;;;;2072216;28;20041;-81
2021/06/23 00:16:22;;;;;;;5.68;3.28;;;13.30;85.30;;;;;;2084138;28;20036;-81
2021/06/23 00:17:22;;;;;;;5.75;3.30;;;13.30;85.20;;;;;;2089364;28;20061;-81
2021/06/23 00:18:23;;;;;;;6.32;3.58;;;13.30;85.20;;;;;;2090129;28;20029;-81
2021/06/23 00:19:24;;;;;;;4.30;3.20;;;13.30;85.30;;;;;;2083939;28;20447;-81
2021/06/23 00:20:25;;;;;;;6.13;3.53;;;13.30;85.40;;;;;;2081667;28;20183;-81
2021/06/23 00:21:25;;;;;;;5.22;3.50;;;13.30;85.40;;;;;;2081220;28;20048;-81
2021/06/23 00:22:26;;;;;;;5.07;3.45;;;13.30;85.40;;;;;;2081447;28;20026;-81
2021/06/23 00:23:27;;;;;;;6.07;3.78;;;13.30;85.30;;;;;;2089632;28;20383;-81
2021/06/23 00:24:28;;;;;;;7.32;3.60;;;13.40;85.40;;;;;;2089443;28;20043;-81
2021/06/23 00:25:29;;;;;;;5.30;3.55;;;13.40;85.20;;;;;;2073334;28;20504;-82
2021/06/23 00:26:33;;;;;;;6.63;3.70;;;13.40;85.10;;;;;;2073117;28;20500;-80
2021/06/23 00:27:34;;;;;;;6.28;3.97;;;13.40;85.00;;;;;;2088742;28;20041;-81
2021/06/23 00:28:34;;;;;;;5.78;3.80;;;13.30;85.00;;;;;;2086328;28;20398;-81
2021/06/23 00:29:35;;;;;;;5.43;3.30;;;13.40;85.10;;;;;;2087217;28;20029;-81
2021/06/23 00:30:35;;;;;;;5.47;3.40;;;13.40;85.00;;;;;;2089680;28;20021;-81
2021/06/23 00:31:36;;;;;;;5.75;3.70;;;13.30;85.60;;;;;;2081165;28;20029;-81
2021/06/23 00:32:40;;;;;;;5.35;3.40;;;13.30;85.00;;;;;;2074697;28;20415;-81
2021/06/23 00:33:42;;;;;;;4.90;3.60;;;13.30;85.20;;;;;;2072042;28;20076;-81
2021/06/23 00:34:42;;;;;;;6.03;3.90;;;13.20;85.20;;;;;;2072734;28;20028;-81
2021/06/23 00:35:43;;;;;;;6.75;4.05;;;13.20;85.20;;;;;;2064262;28;20041;-81
2021/06/23 00:36:43;;;;;;;5.20;3.55;;;13.20;85.30;;;;;;2076734;28;20056;-81
2021/06/23 00:37:45;;;;;;;6.75;3.60;;;13.20;85.40;;;;;;2074525;28;20126;-81
2021/06/23 00:38:45;;;;;;;5.40;3.85;;;13.10;85.50;;;;;;2081422;28;20022;-81
2021/06/23 00:39:46;;;;;;;5.95;4.00;;;13.10;85.60;;;;;;2081350;28;20040;-82
2021/06/23 00:40:46;;;;;;;5.85;3.83;;;13.10;85.70;;;;;;2081200;28;20025;-82
2021/06/23 00:41:47;;;;;;;5.15;3.90;;;13.10;85.80;;;;;;2073243;28;20478;-81
2021/06/23 00:42:48;;;;;;;5.93;3.70;;;13.10;85.90;;;;;;2066910;28;20125;-82
2021/06/23 00:43:49;;;;;;;6.53;3.83;;;13.10;86.00;;;;;;2072797;28;20120;-82
2021/06/23 00:44:50;;;;;;;5.70;3.60;;;13.10;86.00;;;;;;2072998;28;20025;-82
2021/06/23 00:45:51;;;;;;;4.55;3.47;;;13.10;86.00;;;;;;2081185;28;20025;-81
2021/06/23 00:46:52;;;;;;;5.28;3.80;;;13.10;85.90;;;;;;2080977;28;20029;-81
2021/06/23 00:47:54;;;;;;;5.03;3.67;;;13.20;85.90;;;;;;2074376;28;20057;-81
2021/06/23 00:48:57;;;;;;;5.45;4.00;;;13.20;85.90;;;;;;2065029;28;20030;-81
2021/06/23 00:49:58;;;;;;;7.10;4.10;;;13.20;85.90;;;;;;2072203;28;20061;-81
2021/06/23 00:51:01;;;;;;;5.28;3.90;;;13.20;85.90;;;;;;2080213;28;20120;-82
2021/06/23 00:52:03;;;;;;;5.22;3.67;;;13.20;86.00;;;;;;2089514;28;20037;-82
2021/06/23 00:53:04;;;;;;;6.47;3.67;;;13.20;85.70;;;;;;2088345;28;20025;-81
2021/06/23 00:54:11;;;;;;;5.07;4.07;;;13.20;85.70;;;;;;2089228;28;20112;-81
2021/06/23 00:55:20;;;;;;;4.80;3.42;;;13.20;85.80;;;;;;2084567;28;20068;-81
2021/06/23 00:56:31;;;;;;;6.35;3.92;;;13.20;85.70;;;;;;2082506;28;20040;-81
2021/06/23 00:57:32;;;;;;;6.88;4.05;;;13.20;85.80;;;;;;2075636;28;20161;-81
2021/06/23 00:58:33;;;;;;;6.45;4.22;;;13.20;85.80;;;;;;2073103;28;20030;-81
2021/06/23 00:59:35;;;;;;;6.03;4.00;;;13.10;85.70;;;;;;2087206;28;20036;-81
2021/06/23 01:00:36;;;;;;;5.50;3.65;;;13.10;85.80;;;;;;2085437;28;20380;-81
2021/06/23 01:01:42;;;;;;;5.70;3.95;;;13.10;85.90;;;;;;2080771;28;20527;-81
2021/06/23 01:02:43;;;;;;;5.55;3.70;;;13.10;86.00;;;;;;2087706;28;20025;-81
2021/06/23 01:19:30;;;;;;;4.05;3.10;;;13.10;85.10;;;;;;2085474;28;20044;-80
2021/06/23 01:20:30;;;;;;;6.28;3.45;;;13.20;85.00;;;;;;2087487;28;20088;-80
2021/06/23 01:21:31;;;;;;;4.70;3.22;;;13.20;85.10;;;;;;2080389;28;20582;-81
2021/06/23 01:22:34;;;;;;;6.03;3.20;;;13.20;85.10;;;;;;2080560;28;20484;-81
2021/06/23 01:23:35;;;;;;;4.88;3.20;;;13.20;85.10;;;;;;2080559;28;20025;-81
2021/06/23 01:24:36;;;;;;;5.80;3.38;;;13.20;85.30;;;;;;2071665;28;20051;-81
2021/06/23 01:25:38;;;;;;;5.32;3.45;;;13.20;85.30;;;;;;2066234;28;20050;-81
2021/06/23 01:26:39;;;;;;;5.40;3.70;;;13.10;85.30;;;;;;2072942;28;20045;-81
2021/06/23 01:27:42;;;;;;;5.78;3.67;;;13.20;85.50;;;;;;2063818;28;20149;-81
2021/06/23 01:28:43;;;;;;;5.38;3.72;;;13.10;85.40;;;;;;2065420;28;20029;-81
2021/06/23 01:29:43;;;;;;;7.00;3.65;;;13.10;85.60;;;;;;2063561;28;20245;-81
2021/06/23 01:30:45;;;;;;;5.78;3.50;;;13.10;85.60;;;;;;2064192;28;20030;-81
2021/06/23 01:31:45;;;;;;;4.45;3.28;;;13.10;85.80;;;;;;2087352;28;20048;-81
2021/06/23 01:32:46;;;;;;;5.70;3.45;;;13.10;85.80;;;;;;2071308;28;20026;-81
2021/06/23 01:33:49;;;;;;;6.05;3.60;;;13.10;86.60;;;;;;2064469;28;20035;-81
2021/06/23 01:34:49;;;;;;;6.20;3.83;;;13.10;86.00;;;;;;2066005;28;20483;-81
2021/06/23 01:35:52;;;;;;;5.50;3.60;;;13.10;86.10;;;;;;2072526;28;20192;-81
2021/06/23 01:36:52;;;;;;;7.03;3.70;;;13.10;86.10;;;;;;2083453;28;20033;-81
2021/06/23 01:37:53;;;;;;;7.55;3.35;;;13.10;86.10;;;;;;2085340;28;20029;-81
2021/06/23 01:38:54;;;;;;;5.25;3.22;;;13.10;86.10;;;;;;2072789;28;20033;-81
2021/06/23 01:39:55;;;;;;;5.88;3.53;;;13.10;86.10;;;;;;2072771;28;20034;-81
2021/06/23 01:40:56;;;;;;;6.65;3.90;;;13.10;86.20;;;;;;2088795;28;20155;-81
2021/06/23 01:41:56;;;;;;;6.07;3.55;;;13.10;86.20;;;;;;2084130;28;20570;-81
2021/06/23 01:42:58;;;;;;;5.45;3.50;;;13.10;86.30;;;;;;2083666;28;20117;-81
2021/06/23 01:43:58;;;;;;;5.80;3.60;;;13.10;86.80;;;;;;2097174;28;20039;-81
2021/06/23 01:45:00;;;;;;;5.57;3.75;;;13.10;86.30;;;;;;2082776;28;20033;-81
2021/06/23 01:46:01;;;;;;;5.88;3.28;;;13.10;86.20;;;;;;2081560;28;20144;-82
2021/06/23 01:47:03;;;;;;;5.13;3.30;;;13.10;86.30;;;;;;2080830;28;20014;-81
2021/06/23 01:48:04;;;;;;;5.30;3.60;;;13.10;86.40;;;;;;2084131;28;20044;-81
2021/06/23 01:49:05;;;;;;;6.15;3.60;;;13.10;86.40;;;;;;2080910;28;20030;-81
2021/06/23 01:50:06;;;;;;;4.47;3.60;;;13.10;86.40;;;;;;2080859;28;20419;-81
2021/06/23 01:51:06;;;;;;;5.97;3.50;;;13.10;86.50;;;;;;2078666;28;20045;-81
2021/06/23 01:52:07;;;;;;;5.35;3.33;;;13.10;86.40;;;;;;2070945;28;20069;-81
2021/06/23 01:53:08;;;;;;;4.75;3.20;;;13.10;86.40;;;;;;2071338;28;20033;-81
2021/06/23 01:54:09;;;;;;;5.10;3.58;;;13.10;86.40;;;;;;2089769;28;20426;-81
2021/06/23 01:55:26;;;;;;;5.13;3.53;;;13.10;86.40;;;;;;2095980;28;20040;-79
2021/06/23 01:56:31;;;;;;;5.60;3.00;;;13.10;86.40;;;;;;2083589;28;20071;-81
2021/06/23 01:57:40;;;;;;;4.43;3.28;;;13.00;86.30;;;;;;2087255;28;20033;-80
2021/06/23 01:58:43;;;;;;;5.50;3.55;;;13.10;86.50;;;;;;2090646;28;20082;-81
2021/06/23 01:59:44;;;;;;;4.60;3.20;;;13.00;86.50;;;;;;2090599;28;20029;-80
2021/06/23 02:00:48;;;;;;;4.75;3.10;;;13.00;86.60;;;;;;2090647;28;20068;-80
2021/06/23 02:01:59;;;;;;;4.25;3.20;;;13.00;86.60;;;;;;2088009;28;20040;-81
2021/06/23 02:03:10;;;;;;;4.28;3.17;;;13.00;86.60;;;;;;2083530;28;20052;-81
2021/06/23 02:04:32;;;;;;;5.63;3.30;;;13.00;86.60;;;;;;2090356;28;20028;-80
2021/06/23 02:05:57;;;;;;;5.07;3.20;;;13.00;86.60;;;;;;2091094;28;20111;-81
2021/06/23 02:07:09;;;;;;;7.45;3.97;;;13.00;86.50;;;;;;2095335;28;20031;-81
2021/06/23 02:08:47;;;;;;;6.13;3.70;;;13.10;86.40;;;;;;2090295;28;20045;-80
2021/06/23 02:10:12;;;;;;;5.53;3.10;;;13.00;86.20;;;;;;2096676;28;20100;-80
2021/06/23 02:11:33;;;;;;;5.70;3.33;;;13.00;86.20;;;;;;2104336;28;20489;-81
2021/06/23 02:13:31;;;;;;;4.55;3.10;;;13.00;86.20;;;;;;2094775;28;20493;-81
2021/06/23 02:14:42;;;;;;;4.93;2.83;;;13.00;86.20;;;;;;2090035;28;20060;-81
2021/06/23 02:15:46;;;;;;;4.28;3.25;;;13.00;86.10;;;;;;2081101;28;20037;-81
2021/06/23 02:16:49;;;;;;;6.07;3.40;;;13.00;86.10;;;;;;2081451;28;20032;-81
2021/06/23 02:17:50;;;;;;;4.65;3.35;;;13.00;86.10;;;;;;2088468;28;20033;-81
2021/06/23 02:18:51;;;;;;;6.25;3.10;;;13.00;86.10;;;;;;2089366;28;20095;-81
2021/06/23 02:19:52;;;;;;;4.97;3.30;;;13.00;86.20;;;;;;2080792;28;20124;-81
2021/06/23 02:20:57;;;;;;;5.07;3.33;;;13.00;86.20;;;;;;2072974;28;20033;-81
2021/06/23 02:22:01;;;;;;;4.68;3.15;;;13.00;86.20;;;;;;2087372;28;20022;-79
2021/06/23 02:23:07;;;;;;;5.75;3.40;;;12.90;86.20;;;;;;2097954;28;20088;-80
2021/06/23 02:24:09;;;;;;;5.32;3.20;;;13.00;86.30;;;;;;2089324;28;20041;-80
2021/06/23 02:25:12;;;;;;;5.65;3.45;;;12.90;86.30;;;;;;2088763;28;20037;-81
2021/06/23 02:26:14;;;;;;;5.10;3.38;;;13.00;86.40;;;;;;2090352;28;20044;-80
2021/06/23 02:27:15;;;;;;;5.25;3.60;;;12.90;86.30;;;;;;2101163;28;20036;-80
2021/06/23 02:28:18;;;;;;;5.25;3.20;;;12.90;86.40;;;;;;2098601;28;20025;-81
2021/06/23 02:29:19;;;;;;;4.70;3.42;;;12.90;86.50;;;;;;2091570;28;20013;-81
2021/06/23 02:30:20;;;;;;;6.57;3.53;;;12.90;86.50;;;;;;2094098;28;20514;-81
2021/06/23 02:31:20;;;;;;;4.80;3.28;;;12.90;86.50;;;;;;2073427;28;20105;-80
2021/06/23 02:32:26;;;;;;;6.03;3.40;;;12.90;86.50;;;;;;2072013;28;20030;-81
2021/06/23 02:33:27;;;;;;;4.43;3.35;;;12.90;86.50;;;;;;2081634;28;20017;-81
2021/06/23 02:34:27;;;;;;;6.47;3.60;;;12.90;86.40;;;;;;2090764;28;20088;-81
2021/06/23 02:35:28;;;;;;;5.68;3.28;;;12.90;86.30;;;;;;2090819;28;20036;-81
2021/06/23 02:36:29;;;;;;;5.35;3.50;;;12.90;86.40;;;;;;2082480;28;20125;-81
2021/06/23 02:37:30;;;;;;;5.18;3.58;;;12.90;86.50;;;;;;2082479;28;20048;-81
2021/06/23 02:38:31;;;;;;;5.20;3.53;;;12.90;86.50;;;;;;2081690;28;20070;-81
2021/06/23 02:39:32;;;;;;;6.05;3.70;;;12.90;86.50;;;;;;2082464;28;20101;-81
2021/06/23 02:40:34;;;;;;;5.65;3.50;;;12.90;86.50;;;;;;2081570;28;20029;-82
2021/06/23 02:41:35;;;;;;;6.18;3.58;;;12.90;86.50;;;;;;2080797;28;20095;-81
2021/06/23 02:42:36;;;;;;;6.57;3.22;;;12.90;86.50;;;;;;2081057;28;20483;-82
2021/06/23 02:43:37;;;;;;;5.18;3.22;;;12.90;86.50;;;;;;2081357;28;20029;-81
2021/06/23 02:44:39;;;;;;;5.05;3.40;;;12.90;86.50;;;;;;2087278;28;20525;-81
2021/06/23 02:45:39;;;;;;;3.95;3.10;;;12.90;86.50;;;;;;2090316;28;20036;-81
2021/06/23 02:46:42;;;;;;;4.78;3.20;;;12.90;86.50;;;;;;2074066;28;20125;-82
2021/06/23 02:47:43;;;;;;;5.72;3.47;;;12.90;86.50;;;;;;2082515;28;20036;-81
2021/06/23 02:48:44;;;;;;;5.20;3.50;;;12.80;86.50;;;;;;2091774;28;20033;-81
2021/06/23 02:49:45;;;;;;;5.30;3.28;;;12.90;86.60;;;;;;2082227;28;20419;-81
2021/06/23 02:51:07;;;;;;;6.07;3.58;;;12.90;86.60;;;;;;2082042;28;20488;-82
2021/06/23 02:52:08;;;;;;;5.63;3.33;;;12.90;86.60;;;;;;2084706;28;20040;-82
2021/06/23 02:53:09;;;;;;;6.03;3.20;;;12.80;87.10;;;;;;2080264;28;20396;-81
2021/06/23 02:54:11;;;;;;;5.28;3.40;;;12.80;86.50;;;;;;2067708;28;20035;-81
2021/06/23 02:55:19;;;;;;;4.57;3.40;;;12.80;86.50;;;;;;2065590;28;20117;-81
2021/06/23 02:56:21;;;;;;;6.82;3.45;;;12.80;86.50;;;;;;2075893;28;20026;-82
2021/06/23 02:57:22;;;;;;;6.25;3.78;;;12.80;86.50;;;;;;2082119;28;20060;-81
2021/06/23 02:58:23;;;;;;;4.95;3.30;;;12.80;86.50;;;;;;2074752;28;20098;-81
2021/06/23 02:59:24;;;;;;;7.28;3.60;;;12.80;86.50;;;;;;2079806;28;20029;-81
2021/06/23 03:00:25;;;;;;;4.97;3.33;;;12.80;86.60;;;;;;2090323;28;20106;-81
2021/06/23 03:01:26;;;;;;;7.15;3.30;;;12.80;86.60;;;;;;2084969;28;20068;-81
2021/06/23 03:02:26;;;;;;;5.55;3.42;;;12.80;86.60;;;;;;2073850;28;20026;-81
2021/06/23 03:03:27;;;;;;;5.28;3.28;;;12.80;86.60;;;;;;2082066;28;20072;-81
2021/06/23 03:04:28;;;;;;;5.55;3.55;;;12.80;86.60;;;;;;2087475;28;20049;-81
2021/06/23 03:05:28;;;;;;;4.60;3.20;;;12.80;86.70;;;;;;2082130;28;20029;-81
2021/06/23 03:06:29;;;;;;;5.60;3.30;;;12.80;86.70;;;;;;2081655;28;20030;-81
2021/06/23 03:07:30;;;;;;;4.47;3.22;;;12.80;86.60;;;;;;2090207;28;20029;-82
2021/06/23 03:08:31;;;;;;;5.30;3.30;;;12.80;86.50;;;;;;2081987;28;20037;-81
2021/06/23 03:09:31;;;;;;;5.20;3.70;;;12.80;86.50;;;;;;2082085;28;20017;-81
2021/06/23 03:10:32;;;;;;;7.93;3.85;;;12.90;86.60;;;;;;2073901;28;20030;-81
2021/06/23 03:11:34;;;;;;;5.75;3.70;;;12.80;86.50;;;;;;2078944;28;20056;-82
2021/06/23 03:12:35;;;;;;;4.38;3.33;;;12.90;86.60;;;;;;2081699;28;20037;-81
2021/06/23 03:13:36;;;;;;;6.65;3.40;;;12.90;86.50;;;;;;2086567;28;20017;-81
2021/06/23 03:14:37;;;;;;;4.85;3.55;;;12.90;86.60;;;;;;2081811;28;20041;-81
2021/06/23 03:15:38;;;;;;;5.57;3.50;;;12.90;86.60;;;;;;2074002;28;20040;-81
2021/06/23 03:16:38;;;;;;;6.13;3.70;;;12.90;86.60;;;;;;2073179;28;20034;-81
2021/06/23 03:17:39;;;;;;;5.95;3.70;;;12.90;86.50;;;;;;2081434;28;20029;-81
2021/06/23 03:18:40;;;;;;;5.03;3.55;;;12.90;86.50;;;;;;2089757;28;20032;-81
2021/06/23 03:19:40;;;;;;;5.57;3.42;;;12.90;86.50;;;;;;2074073;28;20026;-80
2021/06/23 03:20:41;;;;;;;5.97;3.40;;;12.90;86.60;;;;;;2073663;28;20037;-81
2021/06/23 03:21:42;;;;;;;5.50;3.47;;;12.90;86.60;;;;;;2088897;28;20562;-81
2021/06/23 03:22:42;;;;;;;6.75;3.40;;;12.90;86.60;;;;;;2090356;28;20559;-81
2021/06/23 03:23:47;;;;;;;6.88;3.83;;;12.90;86.50;;;;;;2081549;28;20434;-81
2021/06/23 03:24:49;;;;;;;6.28;3.65;;;12.80;86.50;;;;;;2083037;28;20032;-81
2021/06/23 03:25:50;;;;;;;5.68;3.50;;;12.90;86.60;;;;;;2090231;28;20534;-81
2021/06/23 03:26:51;;;;;;;7.28;3.55;;;12.90;86.60;;;;;;2073915;28;20054;-81
2021/06/23 03:27:57;;;;;;;6.35;3.35;;;12.90;86.50;;;;;;2072835;28;20034;-82
2021/06/23 03:29:13;;;;;;;6.15;3.58;;;12.90;86.50;;;;;;2082733;28;20033;-82
2021/06/23 03:30:15;;;;;;;6.03;3.22;;;12.90;86.50;;;;;;2083611;28;20098;-81
2021/06/23 03:31:16;;;;;;;6.72;3.63;;;12.90;86.50;;;;;;2081449;28;20574;-81
2021/06/23 03:32:16;;;;;;;5.07;3.17;;;12.90;86.50;;;;;;2082106;28;20076;-81
2021/06/23 03:33:17;;;;;;;6.07;3.63;;;12.90;86.50;;;;;;2073564;28;20124;-81
2021/06/23 03:34:18;;;;;;;6.28;3.50;;;12.90;86.40;;;;;;2080626;28;20026;-81
2021/06/23 03:35:21;;;;;;;6.07;3.65;;;12.90;86.50;;;;;;2090710;28;20487;-81
2021/06/23 03:36:22;;;;;;;5.40;3.67;;;12.90;86.50;;;;;;2090678;28;20036;-82
2021/06/23 03:37:22;;;;;;;4.70;3.40;;;12.90;86.50;;;;;;2090140;28;20617;-81
2021/06/23 03:38:23;;;;;;;7.00;3.70;;;12.90;86.50;;;;;;2081611;28;20037;-81
2021/06/23 03:39:24;;;;;;;5.55;3.58;;;12.90;86.50;;;;;;2081398;28;20036;-82
2021/06/23 03:40:25;;;;;;;5.40;3.80;;;12.90;86.60;;;;;;2088639;28;20112;-81
2021/06/23 03:41:25;;;;;;;4.97;3.15;;;12.90;86.50;;;;;;2081557;28;20060;-81
2021/06/23 03:42:26;;;;;;;5.35;3.60;;;12.90;86.60;;;;;;2073185;28;20029;-81
2021/06/23 03:43:29;;;;;;;5.57;3.60;;;12.90;86.50;;;;;;2081371;28;20039;-81
2021/06/23 03:44:30;;;;;;;5.82;3.50;;;12.90;86.50;;;;;;2090077;28;20035;-81
2021/06/23 03:45:31;;;;;;;6.45;3.97;;;12.90;86.40;;;;;;2081742;28;20510;-82
2021/06/23 03:46:32;;;;;;;5.45;3.30;;;12.90;86.50;;;;;;2073592;28;20530;-81
2021/06/23 03:47:34;;;;;;;5.25;3.25;;;12.90;86.50;;;;;;2072588;28;20111;-81
2021/06/23 03:48:34;;;;;;;4.93;3.42;;;12.90;86.60;;;;;;2072121;28;20038;-82
2021/06/23 03:49:35;;;;;;;6.05;3.30;;;12.90;86.50;;;;;;2073634;28;20124;-81
2021/06/23 03:50:36;;;;;;;5.00;3.50;;;12.90;86.50;;;;;;2071628;28;20063;-81
2021/06/23 03:51:36;;;;;;;6.32;3.70;;;12.90;86.60;;;;;;2056792;28;20137;-82
2021/06/23 03:52:38;;;;;;;5.32;3.35;;;12.90;86.50;;;;;;2070440;28;20026;-81
2021/06/23 03:53:38;;;;;;;5.88;3.70;;;12.90;86.50;;;;;;2081069;28;20403;-81
2021/06/23 03:54:39;;;;;;;6.18;3.33;;;12.90;86.50;;;;;;2072843;28;20030;-81
2021/06/23 03:55:40;;;;;;;5.25;3.58;;;12.80;86.50;;;;;;2073626;28;20022;-81
2021/06/23 03:56:41;;;;;;;4.95;3.42;;;12.80;86.50;;;;;;2073405;28;20498;-81
2021/06/23 03:57:41;;;;;;;5.50;3.72;;;12.80;86.50;;;;;;2068108;28;20014;-81
2021/06/23 03:58:42;;;;;;;4.93;3.42;;;12.80;86.50;;;;;;2072938;28;20599;-81
2021/06/23 03:59:43;;;;;;;5.63;3.60;;;12.80;86.50;;;;;;2073568;28;20025;-81
2021/06/23 04:00:43;;;;;;;6.20;3.20;;;12.80;87.10;;;;;;2064692;28;20034;-81
2021/06/23 04:01:44;;;;;;;6.70;3.85;;;12.80;86.50;;;;;;2064452;28;20046;-81
2021/06/23 04:02:45;;;;;;;7.53;3.63;;;12.90;86.60;;;;;;2080128;28;20022;-81
2021/06/23 04:03:45;;;;;;;4.50;3.53;;;12.90;86.60;;;;;;2080637;28;20506;-81
2021/06/23 04:04:47;;;;;;;4.72;3.60;;;12.90;86.60;;;;;;2081586;28;20162;-81
2021/06/23 04:05:47;;;;;;;4.95;3.45;;;12.90;86.60;;;;;;2081463;28;20048;-81
2021/06/23 04:06:48;;;;;;;5.25;3.65;;;12.90;86.60;;;;;;2073310;28;20030;-81
2021/06/23 04:07:49;;;;;;;4.80;3.40;;;12.90;86.50;;;;;;2076108;28;20519;-81
2021/06/23 04:08:50;;;;;;;7.38;3.38;;;12.90;86.50;;;;;;2078718;28;20467;-81
2021/06/23 04:09:50;;;;;;;5.63;3.47;;;12.90;87.10;;;;;;2073392;28;20033;-81
2021/06/23 04:10:51;;;;;;;5.38;3.70;;;12.90;86.50;;;;;;2081511;28;20566;-81
2021/06/23 04:11:52;;;;;;;5.90;3.53;;;12.90;86.50;;;;;;2080920;28;20029;-81
2021/06/23 04:12:52;;;;;;;6.75;3.55;;;12.90;86.50;;;;;;2064711;28;20077;-81
2021/06/23 04:13:53;;;;;;;5.80;3.50;;;12.80;86.60;;;;;;2064450;28;20128;-81
2021/06/23 04:14:54;;;;;;;5.60;3.63;;;12.90;86.70;;;;;;2077648;28;20164;-81
2021/06/23 04:15:54;;;;;;;5.63;3.50;;;12.90;86.70;;;;;;2073704;28;20026;-82
2021/06/23 04:16:55;;;;;;;5.55;3.50;;;12.90;86.70;;;;;;2065453;28;20062;-81
2021/06/23 04:17:56;;;;;;;5.05;3.25;;;12.90;86.70;;;;;;2073272;28;20034;-81
2021/06/23 04:18:56;;;;;;;4.80;3.00;;;12.90;86.60;;;;;;2072695;28;20014;-81
2021/06/23 04:19:57;;;;;;;4.20;3.20;;;12.90;86.60;;;;;;2072469;28;20033;-81
2021/06/23 04:20:58;;;;;;;4.88;3.42;;;12.90;86.60;;;;;;2073170;28;20021;-80
2021/06/23 04:21:58;;;;;;;4.53;3.17;;;12.90;86.60;;;;;;2064344;28;20112;-81
2021/06/23 04:22:59;;;;;;;6.72;3.50;;;12.90;86.60;;;;;;2069961;28;20033;-81
2021/06/23 04:23:59;;;;;;;5.45;3.63;;;12.90;86.60;;;;;;2072609;28;20037;-81
2021/06/23 04:25:00;;;;;;;5.50;3.35;;;12.80;86.50;;;;;;2083033;28;20495;-81
2021/06/23 04:26:01;;;;;;;4.65;3.22;;;12.80;86.60;;;;;;2073176;28;20038;-81
2021/06/23 04:27:03;;;;;;;5.55;3.17;;;12.80;86.60;;;;;;2072964;28;20018;-81
2021/06/23 04:28:04;;;;;;;6.75;3.85;;;12.80;86.60;;;;;;2072762;28;20141;-81
2021/06/23 04:29:05;;;;;;;5.10;3.28;;;12.80;86.60;;;;;;2066685;28;20377;-81
2021/06/23 04:30:10;;;;;;;6.55;3.45;;;12.80;86.60;;;;;;2067075;28;20145;-81
2021/06/23 04:31:11;;;;;;;5.18;3.10;;;12.80;86.70;;;;;;2080919;28;20030;-82
2021/06/23 04:32:12;;;;;;;5.28;3.33;;;12.80;86.60;;;;;;2070885;28;20469;-84
2021/06/23 04:33:13;;;;;;;6.50;3.67;;;12.80;86.70;;;;;;2064872;28;20034;-82
2021/06/23 04:34:14;;;;;;;4.95;3.35;;;12.80;86.60;;;;;;2065058;28;20081;-82
2021/06/23 04:35:15;;;;;;;6.97;3.63;;;12.80;86.60;;;;;;2059339;28;20110;-81
2021/06/23 04:36:15;;;;;;;5.10;3.53;;;12.80;86.60;;;;;;2057246;28;20460;-81
2021/06/23 04:37:16;;;;;;;4.25;3.17;;;12.90;86.50;;;;;;2057085;28;20411;-81
2021/06/23 04:38:17;;;;;;;7.38;3.75;;;12.90;86.50;;;;;;2055023;28;20023;-82
2021/06/23 04:39:18;;;;;;;7.95;3.53;;;12.90;86.50;;;;;;2064761;28;20038;-80
2021/06/23 04:40:19;;;;;;;5.35;3.70;;;12.80;86.50;;;;;;2064243;28;20057;-81
2021/06/23 04:41:19;;;;;;;6.22;3.58;;;12.80;86.50;;;;;;2072890;28;20072;-81
2021/06/23 04:42:21;;;;;;;6.70;3.63;;;12.80;86.50;;;;;;2078618;28;20072;-81
2021/06/23 04:43:21;;;;;;;5.00;3.38;;;12.80;86.50;;;;;;2080709;28;20120;-81
2021/06/23 04:44:22;;;;;;;5.95;3.50;;;12.80;86.50;;;;;;2073239;28;20034;-81
2021/06/23 04:45:23;;;;;;;5.82;3.50;;;12.80;86.50;;;;;;2048774;28;20508;-82
2021/06/23 04:46:23;;;;;;;6.40;3.75;;;12.80;86.50;;;;;;2065090;28;20440;-82
2021/06/23 04:47:24;;;;;;;5.25;3.42;;;12.90;86.50;;;;;;2071286;28;20030;-82
2021/06/23 04:48:25;;;;;;;5.05;3.38;;;12.80;86.40;;;;;;2053878;28;20039;-81
2021/06/23 04:49:25;;;;;;;5.53;3.45;;;12.90;86.50;;;;;;2057040;28;20062;-81
2021/06/23 04:50:26;;;;;;;5.03;3.30;;;12.90;86.40;;;;;;2064192;28;20033;-81
2021/06/23 04:51:27;;;;;;;4.78;3.33;;;12.90;86.40;;;;;;2072376;28;20188;-82
2021/06/23 04:52:28;;;;;;;4.60;3.10;;;12.90;86.30;;;;;;2082382;28;20492;-84
2021/06/23 04:53:28;;;;;;;4.57;3.28;;;12.80;86.30;;;;;;2071377;28;20089;-82
2021/06/23 04:54:29;;;;;;;5.47;3.28;;;12.80;86.30;;;;;;2065140;28;20030;-82
2021/06/23 04:55:30;;;;;;;5.85;3.20;;;12.90;86.30;;;;;;2071732;28;20095;-81
2021/06/23 04:56:31;;;;;;;5.93;3.45;;;12.90;86.30;;;;;;2063750;28;20041;-83
2021/06/23 04:57:32;;;;;;;5.43;3.78;;;12.90;86.30;;;;;;2062369;28;20050;-83
2021/06/23 04:58:32;;;;;;;4.07;3.00;;;12.90;86.30;;;;;;2072174;28;20092;-83
2021/06/23 04:59:33;;;;;;;4.93;3.10;;;12.90;86.20;;;;;;2067879;28;20022;-83
2021/06/23 05:00:33;;;;;;;5.40;3.20;;;12.90;86.20;;;;;;2059595;28;20030;-83
2021/06/23 05:01:34;;;;;;;5.97;3.10;;;12.90;86.20;;;;;;2064915;28;20061;-83
2021/06/23 05:02:35;;;;;;;4.97;3.08;;;13.00;86.20;;;;;;2064535;28;20027;-83
2021/06/23 05:03:35;;;;;;;6.38;3.53;;;13.00;86.20;;;;;;2056463;28;20505;-83
2021/06/23 05:04:36;;;;;;;4.80;3.20;;;13.00;86.10;;;;;;2047773;28;20127;-83
2021/06/23 05:05:39;;;;;;;5.35;3.30;;;13.00;86.10;;;;;;2062743;28;20030;-83
2021/06/23 05:06:39;;;;;;;5.15;3.30;;;12.90;86.10;;;;;;2073967;28;20060;-82
2021/06/23 05:07:40;;;;;;;5.95;3.30;;;13.00;86.20;;;;;;2072879;28;20033;-83
2021/06/23 05:08:41;;;;;;;5.90;3.08;;;13.00;86.20;;;;;;2063081;28;20551;-83
2021/06/23 05:09:41;;;;;;;5.13;3.20;;;13.00;86.20;;;;;;2073161;28;20590;-83
2021/06/23 05:10:42;;;;;;;6.10;3.30;;;13.00;86.20;;;;;;2072944;28;20030;-83
2021/06/23 05:11:42;;;;;;;5.20;3.00;;;13.00;86.20;;;;;;2072785;28;20065;-83
2021/06/23 05:12:43;;;;;;;5.35;3.25;;;13.00;86.10;;;;;;2071832;28;20026;-84
2021/06/23 05:13:44;;;;;;;6.00;3.40;;;13.10;86.10;;;;;;2063310;28;20026;-83
2021/06/23 05:14:45;;;;;;;4.50;3.10;;;13.10;86.00;;;;;;2062809;28;20030;-83
2021/06/23 05:15:45;;;;;;;4.57;3.10;;;13.10;86.00;;;;;;2062224;28;20053;-83
2021/06/23 05:16:49;;;;;;;5.63;3.42;;;13.10;86.00;;;;;;2064234;28;20121;-83
2021/06/23 05:17:50;;;;;;;6.20;3.33;;;13.10;86.00;;;;;;2072625;28;20135;-81
2021/06/23 05:18:52;;;;;;;4.45;3.17;;;13.10;85.90;;;;;;2067900;28;20022;-83
2021/06/23 05:19:54;;;;;;;5.45;3.33;;;13.10;85.90;;;;;;2063463;28;20117;-83
2021/06/23 05:20:56;;;;;;;6.15;3.50;;;13.10;85.90;;;;;;2072979;28;20065;-83
2021/06/23 05:22:00;;;;;;;6.75;3.35;;;13.10;85.90;;;;;;2068796;28;20403;-83
2021/06/23 05:23:01;;;;;;;4.70;3.10;;;13.10;85.90;;;;;;2072214;28;20423;-83
2021/06/23 05:24:02;;;;;;;5.47;3.35;;;13.10;85.80;;;;;;2060191;28;20023;-84
2021/06/23 05:25:04;;;;;;;6.68;3.60;;;13.10;85.80;;;;;;2048757;29;20518;-83
2021/06/23 05:26:04;;;;;;;6.57;3.42;;;13.10;85.70;;;;;;2063580;28;20026;-83
2021/06/23 05:27:08;;;;;;;6.10;3.20;;;13.10;85.70;;;;;;2074010;28;20022;-83
2021/06/23 05:28:09;;;;;;;4.07;3.10;;;13.20;85.90;;;;;;2072899;28;20049;-83
2021/06/23 05:29:10;;;;;;;5.05;3.40;;;13.20;85.80;;;;;;2064003;28;20038;-83
2021/06/23 05:30:11;;;;;;;5.57;3.50;;;13.20;85.60;;;;;;2064961;28;20513;-84
2021/06/23 05:31:11;;;;;;;5.53;3.10;;;13.20;85.60;;;;;;2064939;28;20073;-83
2021/06/23 05:32:12;;;;;;;5.07;3.15;;;13.20;85.50;;;;;;2064525;28;20081;-84
2021/06/23 05:33:13;;;;;;;5.35;3.10;;;13.20;85.50;;;;;;2056714;28;20082;-83
2021/06/23 05:34:14;;;;;;;5.57;3.00;;;13.30;85.50;;;;;;2056376;28;20054;-83
2021/06/23 05:35:14;;;;;;;7.20;3.28;;;13.30;85.50;;;;;;2065065;28;20081;-84
2021/06/23 05:36:15;;;;;;;4.78;3.30;;;13.30;85.50;;;;;;2067364;28;20034;-83
2021/06/23 05:37:15;;;;;;;6.63;3.55;;;13.30;85.40;;;;;;2064573;28;20456;-83
2021/06/23 05:38:16;;;;;;;7.53;3.38;;;13.30;85.40;;;;;;2064039;28;20547;-83
2021/06/23 05:39:17;;;;;;;5.35;3.30;;;13.30;85.40;;;;;;2072885;28;20033;-83